createdAt,value
2018-09-09T00:00:41.319Z,1015.74
2018-09-09T00:01:50.995Z,1015.73
2018-09-09T00:03:00.186Z,1015.71
2018-09-09T00:04:09.610Z,1015.7
2018-09-09T00:05:19.558Z,1015.76
2018-09-09T00:06:28.715Z,1015.75
2018-09-09T00:07:37.869Z,1015.77
2018-09-09T00:08:47.292Z,1015.8
2018-09-09T00:09:56.482Z,1015.79
2018-09-09T00:11:05.902Z,1015.81
2018-09-09T00:12:15.350Z,1015.82
2018-09-09T00:13:25.275Z,1015.79
2018-09-09T00:14:34.434Z,1015.82
2018-09-09T00:15:43.905Z,1015.81
2018-09-09T00:16:53.086Z,1015.83
2018-09-09T00:18:02.474Z,1015.85
2018-09-09T00:19:11.924Z,1015.85
2018-09-09T00:20:21.627Z,1015.85
2018-09-09T00:21:31.320Z,1015.81
2018-09-09T00:22:40.768Z,1015.78
2018-09-09T00:23:50.194Z,1015.8
2018-09-09T00:24:58.838Z,1015.75
2018-09-09T00:26:08.275Z,1015.77
2018-09-09T00:27:17.199Z,1015.77
2018-09-09T00:28:26.613Z,1015.8
2018-09-09T00:29:35.790Z,1015.82
2018-09-09T00:30:45.482Z,1015.85
2018-09-09T00:31:55.167Z,1015.85
2018-09-09T00:33:04.334Z,1015.81
2018-09-09T00:34:13.511Z,1015.79
2018-09-09T00:35:22.679Z,1015.76
2018-09-09T00:36:32.106Z,1015.73
2018-09-09T00:37:41.510Z,1015.73
2018-09-09T00:38:50.946Z,1015.73
2018-09-09T00:40:00.688Z,1015.71
2018-09-09T00:41:09.863Z,1015.7
2018-09-09T00:42:19.055Z,1015.72
2018-09-09T00:43:28.481Z,1015.76
2018-09-09T00:44:37.907Z,1015.74
2018-09-09T00:45:46.839Z,1015.72
2018-09-09T00:46:56.346Z,1015.68
2018-09-09T00:48:05.797Z,1015.72
2018-09-09T00:49:15.247Z,1015.7
2018-09-09T00:50:24.406Z,1015.7
2018-09-09T00:51:33.591Z,1015.67
2018-09-09T00:52:42.507Z,1015.7
2018-09-09T00:53:51.987Z,1015.71
2018-09-09T00:55:01.158Z,1015.73
2018-09-09T00:56:10.321Z,1015.74
2018-09-09T00:57:19.627Z,1015.75
2018-09-09T00:58:29.566Z,1015.77
2018-09-09T00:59:39.014Z,1015.78
2018-09-09T01:00:48.955Z,1015.76
2018-09-09T01:01:58.644Z,1015.76
2018-09-09T01:03:07.797Z,1015.7
2018-09-09T01:04:17.251Z,1015.73
2018-09-09T01:05:26.937Z,1015.72
2018-09-09T01:06:36.618Z,1015.73
2018-09-09T01:07:45.783Z,1015.74
2018-09-09T01:08:55.476Z,1015.7
2018-09-09T01:10:05.207Z,1015.71
2018-09-09T01:11:14.666Z,1015.69
2018-09-09T01:12:24.090Z,1015.62
2018-09-09T01:13:33.769Z,1015.66
2018-09-09T01:14:42.929Z,1015.63
2018-09-09T01:15:51.832Z,1015.57
2018-09-09T01:17:01.025Z,1015.58
2018-09-09T01:18:10.710Z,1015.57
2018-09-09T01:19:20.394Z,1015.58
2018-09-09T01:20:29.303Z,1015.57
2018-09-09T01:21:38.986Z,1015.5
2018-09-09T01:22:48.160Z,1015.52
2018-09-09T01:23:57.873Z,1015.53
2018-09-09T01:25:07.023Z,1015.46
2018-09-09T01:26:16.708Z,1015.42
2018-09-09T01:27:25.853Z,1015.4
2018-09-09T01:28:36.279Z,1015.34
2018-09-09T01:29:45.951Z,1015.37
2018-09-09T01:30:55.124Z,1015.39
2018-09-09T01:32:04.295Z,1015.44
2018-09-09T01:33:13.582Z,1015.42
2018-09-09T01:34:23.289Z,1015.48
2018-09-09T01:35:32.717Z,1015.48
2018-09-09T01:36:42.640Z,1015.48
2018-09-09T01:37:52.337Z,1015.53
2018-09-09T01:39:02.028Z,1015.54
2018-09-09T01:40:11.438Z,1015.58
2018-09-09T01:41:20.604Z,1015.63
2018-09-09T01:42:30.280Z,1015.69
2018-09-09T01:43:40.214Z,1015.66
2018-09-09T01:44:49.369Z,1015.67
2018-09-09T01:45:58.828Z,1015.69
2018-09-09T01:47:08.509Z,1015.76
2018-09-09T01:48:17.931Z,1015.83
2018-09-09T01:49:27.355Z,1015.86
2018-09-09T01:50:55.989Z,1015.85
2018-09-09T01:52:05.666Z,1015.89
2018-09-09T01:53:14.824Z,1015.87
2018-09-09T01:54:24.249Z,1015.88
2018-09-09T01:55:33.658Z,1015.88
2018-09-09T01:56:43.334Z,1015.76
2018-09-09T01:57:52.757Z,1015.77
2018-09-09T01:59:02.437Z,1015.76
2018-09-09T02:00:11.880Z,1015.8
2018-09-09T02:01:21.053Z,1015.89
2018-09-09T02:02:30.010Z,1015.92
2018-09-09T02:03:39.428Z,1015.93
2018-09-09T02:04:48.331Z,1015.93
2018-09-09T02:05:58.014Z,1015.9
2018-09-09T02:07:06.917Z,1015.87
2018-09-09T02:08:16.613Z,1015.86
2018-09-09T02:09:26.330Z,1015.81
2018-09-09T02:10:35.769Z,1015.8
2018-09-09T02:11:44.686Z,1015.81
2018-09-09T02:12:54.122Z,1015.79
2018-09-09T02:14:03.283Z,1015.77
2018-09-09T02:15:12.723Z,1015.72
2018-09-09T02:16:22.170Z,1015.69
2018-09-09T02:17:31.621Z,1015.69
2018-09-09T02:18:41.050Z,1015.67
2018-09-09T02:19:50.470Z,1015.67
2018-09-09T02:20:59.381Z,1015.67
2018-09-09T02:22:09.065Z,1015.67
2018-09-09T02:23:18.243Z,1015.64
2018-09-09T02:24:27.657Z,1015.66
2018-09-09T02:25:37.079Z,1015.68
2018-09-09T02:26:47.166Z,1015.69
2018-09-09T02:27:56.571Z,1015.65
2018-09-09T02:29:05.748Z,1015.67
2018-09-09T02:30:15.689Z,1015.61
2018-09-09T02:31:25.140Z,1015.58
2018-09-09T02:32:34.299Z,1015.54
2018-09-09T02:33:43.999Z,1015.52
2018-09-09T02:34:53.689Z,1015.43
2018-09-09T02:36:03.384Z,1015.37
2018-09-09T02:37:13.142Z,1015.38
2018-09-09T02:38:22.551Z,1015.47
2018-09-09T02:39:31.974Z,1015.51
2018-09-09T02:40:41.400Z,1015.59
2018-09-09T02:41:51.053Z,1015.53
2018-09-09T02:43:00.490Z,1015.57
2018-09-09T02:44:10.178Z,1015.61
2018-09-09T02:45:19.850Z,1015.68
2018-09-09T02:46:29.074Z,1015.65
2018-09-09T02:47:39.044Z,1015.64
2018-09-09T02:48:48.211Z,1015.7
2018-09-09T02:49:58.155Z,1015.73
2018-09-09T02:51:07.355Z,1015.81
2018-09-09T02:52:16.828Z,1015.85
2018-09-09T02:53:26.521Z,1015.83
2018-09-09T02:54:35.961Z,1015.83
2018-09-09T02:55:45.397Z,1015.85
2018-09-09T02:56:55.342Z,1015.82
2018-09-09T02:58:05.274Z,1015.83
2018-09-09T02:59:14.960Z,1015.86
2018-09-09T03:00:24.649Z,1015.86
2018-09-09T03:01:34.325Z,1015.89
2018-09-09T03:02:43.283Z,1015.88
2018-09-09T03:03:52.704Z,1015.9
2018-09-09T03:05:01.863Z,1015.86
2018-09-09T03:06:10.768Z,1015.86
2018-09-09T03:07:20.188Z,1015.88
2018-09-09T03:08:29.619Z,1015.9
2018-09-09T03:09:39.035Z,1015.93
2018-09-09T03:10:48.755Z,1015.86
2018-09-09T03:11:58.447Z,1015.91
2018-09-09T03:13:07.603Z,1015.92
2018-09-09T03:14:17.029Z,1015.94
2018-09-09T03:15:26.202Z,1015.94
2018-09-09T03:16:35.895Z,1015.9
2018-09-09T03:17:45.057Z,1015.95
2018-09-09T03:18:53.970Z,1015.87
2018-09-09T03:20:03.652Z,1015.9
2018-09-09T03:21:13.137Z,1015.89
2018-09-09T03:22:22.876Z,1015.85
2018-09-09T03:23:32.052Z,1015.84
2018-09-09T03:24:42.011Z,1015.82
2018-09-09T03:25:50.929Z,1015.81
2018-09-09T03:27:00.356Z,1015.85
2018-09-09T03:28:10.117Z,1015.83
2018-09-09T03:29:19.029Z,1015.88
2018-09-09T03:30:28.444Z,1015.92
2018-09-09T03:31:38.403Z,1015.89
2018-09-09T03:32:47.572Z,1015.89
2018-09-09T03:33:57.240Z,1015.86
2018-09-09T03:35:06.417Z,1015.82
2018-09-09T03:36:16.104Z,1015.85
2018-09-09T03:37:25.517Z,1015.86
2018-09-09T03:38:35.454Z,1015.83
2018-09-09T03:39:44.607Z,1015.79
2018-09-09T03:40:54.539Z,1015.76
2018-09-09T03:42:03.957Z,1015.7
2018-09-09T03:43:13.641Z,1015.72
2018-09-09T03:44:23.606Z,1015.75
2018-09-09T03:45:33.288Z,1015.71
2018-09-09T03:46:42.984Z,1015.66
2018-09-09T03:47:52.429Z,1015.67
2018-09-09T03:49:02.015Z,1015.68
2018-09-09T03:50:11.184Z,1015.7
2018-09-09T03:51:20.339Z,1015.64
2018-09-09T03:52:29.769Z,1015.65
2018-09-09T03:53:39.206Z,1015.63
2018-09-09T03:54:48.633Z,1015.62
2018-09-09T03:55:58.073Z,1015.62
2018-09-09T03:57:07.759Z,1015.61
2018-09-09T03:58:16.680Z,1015.58
2018-09-09T03:59:26.085Z,1015.55
2018-09-09T04:00:35.760Z,1015.57
2018-09-09T04:01:45.186Z,1015.6
2018-09-09T04:02:54.629Z,1015.55
2018-09-09T04:04:04.045Z,1015.53
2018-09-09T04:05:13.732Z,1015.54
2018-09-09T04:06:23.401Z,1015.53
2018-09-09T04:07:32.314Z,1015.49
2018-09-09T04:08:41.763Z,1015.46
2018-09-09T04:09:51.196Z,1015.48
2018-09-09T04:11:00.775Z,1015.46
2018-09-09T04:12:10.447Z,1015.53
2018-09-09T04:13:20.565Z,1015.53
2018-09-09T04:14:29.980Z,1015.53
2018-09-09T04:15:39.137Z,1015.51
2018-09-09T04:16:48.033Z,1015.54
2018-09-09T04:17:57.445Z,1015.53
2018-09-09T04:19:06.868Z,1015.54
2018-09-09T04:20:16.301Z,1015.62
2018-09-09T04:21:26.256Z,1015.61
2018-09-09T04:22:35.160Z,1015.66
2018-09-09T04:23:44.330Z,1015.72
2018-09-09T04:24:54.264Z,1015.71
2018-09-09T04:26:03.692Z,1015.71
2018-09-09T04:27:12.863Z,1015.7
2018-09-09T04:28:22.038Z,1015.69
2018-09-09T04:29:31.718Z,1015.68
2018-09-09T04:30:40.888Z,1015.64
2018-09-09T04:31:51.221Z,1015.65
2018-09-09T04:33:00.940Z,1015.62
2018-09-09T04:34:10.916Z,1015.64
2018-09-09T04:35:20.855Z,1015.64
2018-09-09T04:36:30.286Z,1015.69
2018-09-09T04:37:39.986Z,1015.71
2018-09-09T04:38:49.653Z,1015.7
2018-09-09T04:39:59.655Z,1015.73
2018-09-09T04:41:08.893Z,1015.73
2018-09-09T04:42:18.600Z,1015.76
2018-09-09T04:43:27.519Z,1015.8
2018-09-09T04:44:36.968Z,1015.91
2018-09-09T04:45:46.649Z,1015.91
2018-09-09T04:46:56.079Z,1015.92
2018-09-09T04:48:04.986Z,1015.95
2018-09-09T04:49:14.410Z,1015.97
2018-09-09T04:50:23.852Z,1015.98
2018-09-09T04:51:33.013Z,1016
2018-09-09T04:52:42.178Z,1015.99
2018-09-09T04:53:51.600Z,1016.01
2018-09-09T04:55:00.768Z,1015.97
2018-09-09T04:56:10.180Z,1015.99
2018-09-09T04:57:19.603Z,1016.02
2018-09-09T04:58:28.776Z,1016.03
2018-09-09T04:59:38.441Z,1016.02
2018-09-09T05:00:47.888Z,1016.02
2018-09-09T05:01:57.319Z,1015.99
2018-09-09T05:03:06.498Z,1016
2018-09-09T05:04:15.963Z,1016.01
2018-09-09T05:05:25.395Z,1015.99
2018-09-09T05:06:35.157Z,1016.02
2018-09-09T05:07:45.106Z,1016.01
2018-09-09T05:08:54.268Z,1016.05
2018-09-09T05:10:04.001Z,1016.05
2018-09-09T05:11:13.422Z,1016.14
2018-09-09T05:12:22.332Z,1016.12
2018-09-09T05:13:31.999Z,1016.14
2018-09-09T05:14:41.672Z,1016.13
2018-09-09T05:15:51.372Z,1016.13
2018-09-09T05:17:00.537Z,1016.11
2018-09-09T05:18:09.950Z,1016.09
2018-09-09T05:19:19.627Z,1016.11
2018-09-09T05:20:28.792Z,1016.11
2018-09-09T05:21:37.971Z,1016.1
2018-09-09T05:22:47.894Z,1016.02
2018-09-09T05:23:57.590Z,1016.01
2018-09-09T05:25:06.769Z,1016.04
2018-09-09T05:26:16.217Z,1016.02
2018-09-09T05:27:25.910Z,1016.01
2018-09-09T05:28:35.599Z,1016.03
2018-09-09T05:29:44.766Z,1016.08
2018-09-09T05:30:54.751Z,1016.13
2018-09-09T05:32:04.175Z,1016.15
2018-09-09T05:33:14.316Z,1016.09
2018-09-09T05:34:23.213Z,1016.1
2018-09-09T05:35:32.375Z,1016.06
2018-09-09T05:36:42.058Z,1016.06
2018-09-09T05:37:51.228Z,1016.07
2018-09-09T05:39:00.389Z,1016.08
2018-09-09T05:40:09.827Z,1016.11
2018-09-09T05:41:19.261Z,1016.09
2018-09-09T05:42:28.516Z,1016.11
2018-09-09T05:43:38.310Z,1016.09
2018-09-09T05:44:47.746Z,1016.13
2018-09-09T05:45:57.330Z,1016.16
2018-09-09T05:47:06.996Z,1016.2
2018-09-09T05:48:16.668Z,1016.15
2018-09-09T05:49:26.087Z,1016.21
2018-09-09T05:50:35.506Z,1016.22
2018-09-09T05:51:44.935Z,1016.23
2018-09-09T05:52:54.413Z,1016.27
2018-09-09T05:54:04.349Z,1016.2
2018-09-09T05:55:13.580Z,1016.19
2018-09-09T05:56:22.997Z,1016.22
2018-09-09T05:57:32.949Z,1016.19
2018-09-09T05:58:42.510Z,1016.19
2018-09-09T05:59:51.675Z,1016.23
2018-09-09T06:01:01.161Z,1016.27
2018-09-09T06:02:10.332Z,1016.27
2018-09-09T06:03:19.742Z,1016.26
2018-09-09T06:04:28.903Z,1016.26
2018-09-09T06:05:38.341Z,1016.24
2018-09-09T06:06:48.301Z,1016.28
2018-09-09T06:07:57.775Z,1016.27
2018-09-09T06:09:07.438Z,1016.3
2018-09-09T06:10:16.614Z,1016.3
2018-09-09T06:11:26.039Z,1016.23
2018-09-09T06:12:34.944Z,1016.34
2018-09-09T06:13:44.380Z,1016.33
2018-09-09T06:14:53.271Z,1016.28
2018-09-09T06:16:03.019Z,1016.33
2018-09-09T06:17:11.924Z,1016.34
2018-09-09T06:18:21.863Z,1016.37
2018-09-09T06:19:31.297Z,1016.43
2018-09-09T06:20:40.989Z,1016.39
2018-09-09T06:21:50.415Z,1016.38
2018-09-09T06:22:59.840Z,1016.41
2018-09-09T06:24:08.792Z,1016.43
2018-09-09T06:25:18.256Z,1016.42
2018-09-09T06:26:27.446Z,1016.48
2018-09-09T06:27:36.400Z,1016.5
2018-09-09T06:28:45.625Z,1016.51
2018-09-09T06:29:55.327Z,1016.5
2018-09-09T06:31:04.756Z,1016.54
2018-09-09T06:32:14.223Z,1016.59
2018-09-09T06:33:23.179Z,1016.6
2018-09-09T06:34:32.768Z,1016.59
2018-09-09T06:35:42.222Z,1016.59
2018-09-09T06:36:52.063Z,1016.62
2018-09-09T06:38:01.528Z,1016.59
2018-09-09T06:39:10.802Z,1016.56
2018-09-09T06:40:20.125Z,1016.51
2018-09-09T06:41:29.864Z,1016.52
2018-09-09T06:42:39.605Z,1016.52
2018-09-09T06:43:49.350Z,1016.5
2018-09-09T06:44:59.099Z,1016.5
2018-09-09T06:46:08.840Z,1016.52
2018-09-09T06:47:17.809Z,1016.54
2018-09-09T06:48:27.290Z,1016.54
2018-09-09T06:49:36.512Z,1016.58
2018-09-09T06:50:45.434Z,1016.57
2018-09-09T06:51:55.128Z,1016.6
2018-09-09T06:53:04.329Z,1016.6
2018-09-09T06:54:14.310Z,1016.58
2018-09-09T06:55:23.548Z,1016.6
2018-09-09T06:56:33.675Z,1016.57
2018-09-09T06:57:42.845Z,1016.62
2018-09-09T06:58:52.261Z,1016.58
2018-09-09T07:00:01.947Z,1016.61
2018-09-09T07:01:11.380Z,1016.54
2018-09-09T07:02:21.155Z,1016.53
2018-09-09T07:03:30.361Z,1016.54
2018-09-09T07:04:39.531Z,1016.56
2018-09-09T07:05:49.201Z,1016.56
2018-09-09T07:06:58.885Z,1016.52
2018-09-09T07:08:08.559Z,1016.53
2018-09-09T07:09:17.499Z,1016.54
2018-09-09T07:10:27.242Z,1016.56
2018-09-09T07:11:37.155Z,1016.57
2018-09-09T07:12:47.988Z,1016.54
2018-09-09T07:13:57.247Z,1016.58
2018-09-09T07:15:06.696Z,1016.59
2018-09-09T07:16:16.395Z,1016.55
2018-09-09T07:17:25.854Z,1016.53
2018-09-09T07:18:34.782Z,1016.5
2018-09-09T07:19:43.722Z,1016.52
2018-09-09T07:20:53.442Z,1016.51
2018-09-09T07:22:02.861Z,1016.49
2018-09-09T07:23:12.032Z,1016.49
2018-09-09T07:24:21.459Z,1016.49
2018-09-09T07:25:30.130Z,1016.5
2018-09-09T07:26:40.095Z,1016.47
2018-09-09T07:27:49.802Z,1016.51
2018-09-09T07:28:59.276Z,1016.49
2018-09-09T07:30:08.477Z,1016.5
2018-09-09T07:31:17.672Z,1016.5
2018-09-09T07:32:27.395Z,1016.52
2018-09-09T07:33:36.605Z,1016.54
2018-09-09T07:34:46.060Z,1016.58
2018-09-09T07:35:55.513Z,1016.58
2018-09-09T07:37:05.242Z,1016.64
2018-09-09T07:38:14.500Z,1016.67
2018-09-09T07:39:23.775Z,1016.71
2018-09-09T07:40:32.995Z,1016.68
2018-09-09T07:41:42.751Z,1016.72
2018-09-09T07:42:51.959Z,1016.77
2018-09-09T07:44:01.640Z,1016.74
2018-09-09T07:45:10.944Z,1016.76
2018-09-09T07:46:20.766Z,1016.78
2018-09-09T07:47:30.384Z,1016.81
2018-09-09T07:48:39.822Z,1016.79
2018-09-09T07:49:48.740Z,1016.84
2018-09-09T07:50:58.188Z,1016.81
2018-09-09T07:52:08.077Z,1016.8
2018-09-09T07:53:17.526Z,1016.81
2018-09-09T07:54:26.984Z,1016.85
2018-09-09T07:55:35.979Z,1016.86
2018-09-09T07:56:44.937Z,1016.88
2018-09-09T07:57:53.895Z,1016.84
2018-09-09T07:59:03.656Z,1016.87
2018-09-09T08:00:13.125Z,1016.88
2018-09-09T08:01:25.110Z,1016.9
2018-09-09T08:02:35.147Z,1016.88
2018-09-09T08:03:44.563Z,1016.93
2018-09-09T08:04:53.563Z,1016.87
2018-09-09T08:06:03.247Z,1016.9
2018-09-09T08:07:12.976Z,1016.92
2018-09-09T08:08:22.411Z,1016.94
2018-09-09T08:09:31.844Z,1016.95
2018-09-09T08:10:41.565Z,1016.95
2018-09-09T08:11:50.765Z,1016.93
2018-09-09T08:13:00.793Z,1016.95
2018-09-09T08:14:10.249Z,1016.92
2018-09-09T08:15:20.434Z,1016.9
2018-09-09T08:16:29.350Z,1016.9
2018-09-09T08:17:38.527Z,1016.89
2018-09-09T08:18:47.954Z,1016.86
2018-09-09T08:19:56.864Z,1016.87
2018-09-09T08:21:06.125Z,1016.87
2018-09-09T08:22:15.602Z,1016.85
2018-09-09T08:23:25.052Z,1016.88
2018-09-09T08:24:34.565Z,1016.88
2018-09-09T08:25:44.542Z,1016.88
2018-09-09T08:26:53.469Z,1016.86
2018-09-09T08:28:03.162Z,1016.88
2018-09-09T08:29:12.595Z,1016.89
2018-09-09T08:30:22.306Z,1016.89
2018-09-09T08:31:32.242Z,1016.9
2018-09-09T08:32:42.131Z,1016.9
2018-09-09T08:33:51.832Z,1016.86
2018-09-09T08:35:01.299Z,1016.89
2018-09-09T08:36:10.729Z,1016.85
2018-09-09T08:37:20.431Z,1016.88
2018-09-09T08:38:30.397Z,1016.92
2018-09-09T08:39:39.572Z,1016.93
2018-09-09T08:40:48.731Z,1016.95
2018-09-09T08:41:58.178Z,1016.96
2018-09-09T08:43:07.856Z,1016.93
2018-09-09T08:44:17.041Z,1016.98
2018-09-09T08:45:25.983Z,1016.97
2018-09-09T08:46:35.725Z,1016.97
2018-09-09T08:47:45.183Z,1016.93
2018-09-09T08:48:54.624Z,1016.93
2018-09-09T08:50:04.058Z,1016.97
2018-09-09T08:51:12.726Z,1016.94
2018-09-09T08:52:22.399Z,1016.95
2018-09-09T08:53:32.103Z,1016.98
2018-09-09T08:54:41.558Z,1017
2018-09-09T08:55:51.072Z,1016.99
2018-09-09T08:57:00.562Z,1016.93
2018-09-09T08:58:10.004Z,1016.93
2018-09-09T08:59:19.472Z,1016.92
2018-09-09T09:00:28.947Z,1016.92
2018-09-09T09:01:38.128Z,1016.98
2018-09-09T09:02:47.354Z,1016.94
2018-09-09T09:03:56.530Z,1016.96
2018-09-09T09:05:06.049Z,1016.95
2018-09-09T09:06:15.497Z,1016.97
2018-09-09T09:07:25.264Z,1016.97
2018-09-09T09:08:34.818Z,1016.98
2018-09-09T09:09:44.509Z,1016.96
2018-09-09T09:10:53.954Z,1016.98
2018-09-09T09:12:02.612Z,1016.98
2018-09-09T09:13:12.284Z,1016.97
2018-09-09T09:14:21.765Z,1016.9
2018-09-09T09:15:31.741Z,1016.91
2018-09-09T09:16:41.170Z,1016.96
2018-09-09T09:17:50.591Z,1016.91
2018-09-09T09:19:00.277Z,1016.88
2018-09-09T09:20:09.447Z,1016.87
2018-09-09T09:21:18.872Z,1016.86
2018-09-09T09:22:27.832Z,1016.88
2018-09-09T09:23:37.356Z,1016.94
2018-09-09T09:24:46.992Z,1016.94
2018-09-09T09:25:56.158Z,1016.99
2018-09-09T09:27:05.607Z,1017.03
2018-09-09T09:28:14.508Z,1016.99
2018-09-09T09:29:23.931Z,1017.03
2018-09-09T09:30:33.611Z,1017
2018-09-09T09:31:43.923Z,1017
2018-09-09T09:32:53.388Z,1016.97
2018-09-09T09:34:03.075Z,1017.01
2018-09-09T09:35:12.514Z,1016.99
2018-09-09T09:36:21.966Z,1016.99
2018-09-09T09:37:31.181Z,1016.89
2018-09-09T09:38:40.864Z,1016.92
2018-09-09T09:39:50.551Z,1016.93
2018-09-09T09:41:00.229Z,1016.9
2018-09-09T09:42:09.912Z,1016.88
2018-09-09T09:43:19.367Z,1016.85
2018-09-09T09:44:29.473Z,1016.83
2018-09-09T09:45:38.681Z,1016.84
2018-09-09T09:46:47.858Z,1016.83
2018-09-09T09:47:57.252Z,1016.78
2018-09-09T09:49:05.914Z,1016.81
2018-09-09T09:50:15.332Z,1016.8
2018-09-09T09:51:25.280Z,1016.79
2018-09-09T09:52:34.457Z,1016.8
2018-09-09T09:53:43.373Z,1016.79
2018-09-09T09:54:53.059Z,1016.82
2018-09-09T09:56:02.026Z,1016.8
2018-09-09T09:57:11.445Z,1016.8
2018-09-09T09:58:21.121Z,1016.83
2018-09-09T09:59:30.554Z,1016.82
2018-09-09T10:00:39.732Z,1016.82
2018-09-09T10:01:48.899Z,1016.8
2018-09-09T10:02:58.375Z,1016.84
2018-09-09T10:04:07.534Z,1016.86
2018-09-09T10:05:16.436Z,1016.83
2018-09-09T10:06:26.413Z,1016.87
2018-09-09T10:07:36.110Z,1016.92
2018-09-09T10:08:45.529Z,1016.94
2018-09-09T10:09:55.224Z,1016.94
2018-09-09T10:11:04.391Z,1016.93
2018-09-09T10:12:13.816Z,1016.94
2018-09-09T10:13:22.734Z,1016.97
2018-09-09T10:14:32.154Z,1016.95
2018-09-09T10:15:41.837Z,1016.95
2018-09-09T10:16:50.997Z,1016.95
2018-09-09T10:18:00.668Z,1016.95
2018-09-09T10:19:09.566Z,1016.99
2018-09-09T10:20:18.994Z,1016.97
2018-09-09T10:21:28.674Z,1017.01
2018-09-09T10:22:37.862Z,1016.98
2018-09-09T10:23:47.045Z,1016.98
2018-09-09T10:24:56.356Z,1016.98
2018-09-09T10:26:05.529Z,1016.97
2018-09-09T10:27:14.430Z,1016.95
2018-09-09T10:28:23.653Z,1016.96
2018-09-09T10:29:33.089Z,1016.97
2018-09-09T10:30:42.269Z,1016.99
2018-09-09T10:31:52.222Z,1017
2018-09-09T10:33:02.157Z,1016.97
2018-09-09T10:34:11.590Z,1016.98
2018-09-09T10:35:21.315Z,1016.99
2018-09-09T10:36:30.491Z,1016.96
2018-09-09T10:37:39.937Z,1017.01
2018-09-09T10:38:49.384Z,1016.98
2018-09-09T10:39:59.062Z,1016.94
2018-09-09T10:41:08.746Z,1016.91
2018-09-09T10:42:18.191Z,1016.87
2018-09-09T10:43:28.167Z,1016.88
2018-09-09T10:44:37.874Z,1016.89
2018-09-09T10:45:47.293Z,1016.91
2018-09-09T10:46:56.535Z,1016.89
2018-09-09T10:48:06.361Z,1016.87
2018-09-09T10:49:15.519Z,1016.85
2018-09-09T10:50:24.439Z,1016.91
2018-09-09T10:51:33.864Z,1016.9
2018-09-09T10:52:43.559Z,1016.91
2018-09-09T10:53:53.245Z,1016.9
2018-09-09T10:55:03.630Z,1016.87
2018-09-09T10:56:13.077Z,1016.88
2018-09-09T10:57:22.531Z,1016.92
2018-09-09T10:58:31.642Z,1016.91
2018-09-09T10:59:41.127Z,1016.93
2018-09-09T11:00:50.808Z,1016.89
2018-09-09T11:02:00.238Z,1016.92
2018-09-09T11:03:09.145Z,1016.86
2018-09-09T11:04:18.568Z,1016.82
2018-09-09T11:05:28.265Z,1016.73
2018-09-09T11:06:37.435Z,1016.7
2018-09-09T11:07:46.676Z,1016.68
2018-09-09T11:08:55.858Z,1016.65
2018-09-09T11:10:04.796Z,1016.64
2018-09-09T11:11:13.717Z,1016.63
2018-09-09T11:12:23.416Z,1016.59
2018-09-09T11:13:33.393Z,1016.66
2018-09-09T11:14:43.286Z,1016.62
2018-09-09T11:15:52.963Z,1016.62
2018-09-09T11:17:02.437Z,1016.63
2018-09-09T11:18:11.632Z,1016.61
2018-09-09T11:19:21.319Z,1016.63
2018-09-09T11:20:31.162Z,1016.64
2018-09-09T11:21:40.826Z,1016.69
2018-09-09T11:22:50.256Z,1016.69
2018-09-09T11:23:59.705Z,1016.7
2018-09-09T11:25:09.634Z,1016.7
2018-09-09T11:26:19.330Z,1016.7
2018-09-09T11:27:29.010Z,1016.77
2018-09-09T11:28:38.171Z,1016.76
2018-09-09T11:29:47.617Z,1016.79
2018-09-09T11:30:57.920Z,1016.71
2018-09-09T11:32:07.083Z,1016.68
2018-09-09T11:33:16.761Z,1016.64
2018-09-09T11:34:26.185Z,1016.63
2018-09-09T11:35:35.590Z,1016.6
2018-09-09T11:36:45.281Z,1016.62
2018-09-09T11:37:54.954Z,1016.67
2018-09-09T11:39:04.368Z,1016.65
2018-09-09T11:40:13.821Z,1016.61
2018-09-09T11:41:22.988Z,1016.64
2018-09-09T11:42:32.400Z,1016.66
2018-09-09T11:43:42.337Z,1016.59
2018-09-09T11:44:51.500Z,1016.64
2018-09-09T11:46:00.914Z,1016.63
2018-09-09T11:47:10.095Z,1016.63
2018-09-09T11:48:19.557Z,1016.6
2018-09-09T11:49:29.003Z,1016.58
2018-09-09T11:50:39.094Z,1016.53
2018-09-09T11:51:48.814Z,1016.55
2018-09-09T11:52:58.008Z,1016.56
2018-09-09T11:54:08.201Z,1016.55
2018-09-09T11:55:17.624Z,1016.54
2018-09-09T11:56:26.588Z,1016.48
2018-09-09T11:57:35.247Z,1016.5
2018-09-09T11:58:45.192Z,1016.43
2018-09-09T11:59:54.909Z,1016.45
2018-09-09T12:01:03.801Z,1016.4
2018-09-09T12:02:12.957Z,1016.4
2018-09-09T12:03:22.647Z,1016.47
2018-09-09T12:04:32.588Z,1016.45
2018-09-09T12:05:41.750Z,1016.44
2018-09-09T12:06:51.161Z,1016.41
2018-09-09T12:08:00.834Z,1016.36
2018-09-09T12:09:10.243Z,1016.34
2018-09-09T12:10:19.668Z,1016.39
2018-09-09T12:11:29.609Z,1016.39
2018-09-09T12:12:39.300Z,1016.41
2018-09-09T12:13:48.502Z,1016.44
2018-09-09T12:14:58.252Z,1016.4
2018-09-09T12:16:08.373Z,1016.42
2018-09-09T12:17:17.794Z,1016.44
2018-09-09T12:18:26.783Z,1016.42
2018-09-09T12:19:35.959Z,1016.41
2018-09-09T12:20:45.620Z,1016.43
2018-09-09T12:21:55.283Z,1016.39
2018-09-09T12:23:04.703Z,1016.35
2018-09-09T12:24:14.394Z,1016.37
2018-09-09T12:25:24.067Z,1016.34
2018-09-09T12:26:34.070Z,1016.35
2018-09-09T12:27:43.223Z,1016.32
2018-09-09T12:28:52.398Z,1016.28
2018-09-09T12:30:02.084Z,1016.31
2018-09-09T12:31:11.247Z,1016.28
2018-09-09T12:32:20.474Z,1016.28
2018-09-09T12:33:30.163Z,1016.32
2018-09-09T12:34:39.596Z,1016.32
2018-09-09T12:35:49.282Z,1016.33
2018-09-09T12:36:58.710Z,1016.28
2018-09-09T12:38:08.396Z,1016.32
2018-09-09T12:39:17.832Z,1016.35
2018-09-09T12:40:27.537Z,1016.28
2018-09-09T12:41:37.207Z,1016.3
2018-09-09T12:42:46.374Z,1016.28
2018-09-09T12:43:55.544Z,1016.2
2018-09-09T12:45:05.509Z,1016.2
2018-09-09T12:46:14.964Z,1016.18
2018-09-09T12:47:24.660Z,1016.14
2018-09-09T12:48:34.356Z,1016.14
2018-09-09T12:49:43.523Z,1016.13
2018-09-09T12:50:52.436Z,1016.17
2018-09-09T12:52:02.126Z,1016.18
2018-09-09T12:53:11.548Z,1016.16
2018-09-09T12:54:20.712Z,1016.2
2018-09-09T12:55:30.134Z,1016.23
2018-09-09T12:56:39.605Z,1016.25
2018-09-09T12:57:49.062Z,1016.25
2018-09-09T12:58:58.479Z,1016.26
2018-09-09T13:00:08.442Z,1016.26
2018-09-09T13:01:18.105Z,1016.22
2018-09-09T13:02:27.802Z,1016.24
2018-09-09T13:03:37.215Z,1016.23
2018-09-09T13:04:46.636Z,1016.22
2018-09-09T13:05:56.339Z,1016.22
2018-09-09T13:07:06.013Z,1016.26
2018-09-09T13:08:15.797Z,1016.23
2018-09-09T13:09:24.698Z,1016.21
2018-09-09T13:10:33.863Z,1016.23
2018-09-09T13:11:43.046Z,1016.19
2018-09-09T13:12:51.958Z,1016.19
2018-09-09T13:14:00.876Z,1016.19
2018-09-09T13:15:10.349Z,1016.16
2018-09-09T13:16:19.765Z,1016.18
2018-09-09T13:17:29.478Z,1016.13
2018-09-09T13:18:38.911Z,1016.15
2018-09-09T13:19:48.133Z,1016.19
2018-09-09T13:20:57.303Z,1016.16
2018-09-09T13:22:06.974Z,1016.23
2018-09-09T13:23:16.929Z,1016.21
2018-09-09T13:24:26.122Z,1016.16
2018-09-09T13:25:35.832Z,1016.08
2018-09-09T13:26:45.271Z,1016.1
2018-09-09T13:27:54.718Z,1016.05
2018-09-09T13:29:04.406Z,1016.06
2018-09-09T13:30:13.571Z,1016.04
2018-09-09T13:31:22.993Z,1016.05
2018-09-09T13:32:32.667Z,1016.1
2018-09-09T13:33:42.086Z,1016.09
2018-09-09T13:34:52.030Z,1016.09
2018-09-09T13:36:01.514Z,1016.09
2018-09-09T13:37:10.987Z,1016.05
2018-09-09T13:38:20.429Z,1016.06
2018-09-09T13:39:29.612Z,1016.01
2018-09-09T13:40:39.037Z,1016
2018-09-09T13:41:48.987Z,1016.02
2018-09-09T13:42:58.174Z,1015.99
2018-09-09T13:44:07.585Z,1016.02
2018-09-09T13:45:17.007Z,1016.06
2018-09-09T13:46:26.945Z,1016.03
2018-09-09T13:47:36.125Z,1016.03
2018-09-09T13:48:45.282Z,1016.01
2018-09-09T13:49:54.767Z,1016.02
2018-09-09T13:51:04.184Z,1016.02
2018-09-09T13:52:13.379Z,1016
2018-09-09T13:53:22.313Z,1016
2018-09-09T13:54:31.992Z,1016.02
2018-09-09T13:55:41.168Z,1016.02
2018-09-09T13:56:50.613Z,1016.01
2018-09-09T13:58:00.325Z,1016.01
2018-09-09T13:59:09.268Z,1015.96
2018-09-09T14:00:18.424Z,1015.96
2018-09-09T14:01:28.105Z,1015.94
2018-09-09T14:02:38.026Z,1015.88
2018-09-09T14:03:47.211Z,1015.92